Meteo Giornale » Osservazioni meteo Cina » Tianjin-Zhangguizhu
ore: 20:00 - Osservazioni Meteo Tianjin-Zhangguizhu
Lat. 39° 11' N Lon. 117° 21' E Alt. 3 metri s.l.m.
24 °C
Sereno
Temp. 24 Ore
21 °C
30 °C
Nord
7.2 Km/h
Dew point 15 °C
Umidità 57 %
Visibilità 10 Km
Il sole sorge alle ore 05:38
Il sole tramonta alle ore 18:42
| Data e Ora | Cielo e Fenomeni | T °C | DP °C | Um. % | Pres. hPa | Vis. km | Vento km/h | |
|---|---|---|---|---|---|---|---|---|
| Oggi h: 20:00 | Sereno | 24 | 15 | 57 | 1016 | 10 | N 7.2 | |
| Oggi h: 19:30 | Sereno | 26 | 14 | 47 | 1016 | 10 | E 10.8 | |
| Oggi h: 19:00 | Sereno | 26 | 14 | 47 | 1016 | 10 | N 7.2 | |
| Oggi h: 18:30 | Sereno | 27 | 14 | 44 | 1015 | 10 | E 10.8 | |
| Oggi h: 18:00 | Sereno | 28 | 12 | 37 | 1015 | 10 | N 7.2 | |
| Oggi h: 17:30 | Sereno | 28 | 11 | 34 | 1015 | 10 | N 7.2 | |
| Oggi h: 17:00 | Sereno | 29 | 11 | 32 | 1015 | 10 | N 7.2 | |
| Oggi h: 16:30 | Sereno | 29 | 12 | 35 | 1015 | 10 | N/NE 14.4 | |
| Oggi h: 16:00 | Sereno | 30 | 13 | 35 | 1015 | 10 | N 10.8 | |
| Oggi h: 15:30 | Poco Nuvoloso | 29 | 12 | 35 | 1015 | 10 | N/NE 10.8 | |
| Oggi h: 15:00 | Poco Nuvoloso | 29 | 13 | 37 | 1016 | 10 | E 10.8 | |
| Oggi h: 14:30 | Poco Nuvoloso | 29 | 13 | 37 | 1016 | 10 | N 7.2 | |
| Oggi h: 14:00 | Poco Nuvoloso | 29 | 14 | 39 | 1016 | 10 | NE 10.8 | |
| Oggi h: 13:30 | Poco Nuvoloso | 29 | 14 | 39 | 1017 | 10 | E/NE 10.8 | |
| Oggi h: 13:00 | Poco Nuvoloso | 29 | 14 | 39 | 1017 | 10 | N 7.2 | |
| Oggi h: 12:30 | Poco Nuvoloso | 29 | 14 | 39 | 1017 | 10 | E 14.4 | |
| Oggi h: 12:00 | Poco Nuvoloso | 28 | 14 | 42 | 1017 | 10 | NE 14.4 | |
| Oggi h: 11:30 | Poco Nuvoloso | 28 | 15 | 45 | 1017 | 10 | E 14.4 | |
| Oggi h: 11:00 | Sereno | 28 | 15 | 45 | 1018 | 10 | E/NE 18 | |
| Oggi h: 10:30 | Sereno | 27 | 16 | 50 | 1018 | 10 | E 14.4 | |
| Oggi h: 10:00 | Poco Nuvoloso | 28 | 17 | 51 | 1018 | 10 | E 14.4 | |
| Oggi h: 09:30 | Sereno | 27 | 17 | 54 | 1018 | 10 | E/NE 14.4 | |
| Oggi h: 09:00 | Sereno | 27 | 19 | 61 | 1017 | 10 | E 14.4 | |
| Oggi h: 08:30 | Sereno | 26 | 19 | 65 | 1017 | 10 | E 14.4 | |
| Oggi h: 08:00 | Sereno | 25 | 19 | 69 | 1017 | 10 | N 7.2 | |
| Oggi h: 07:30 | Sereno | 24 | 20 | 78 | 1017 | 10 | N 7.2 | |
| Oggi h: 07:00 | Sereno | 24 | 20 | 78 | 1017 | 10 | N 7.2 | |
| Oggi h: 06:30 | Sereno | 22 | 20 | 88 | 1016 | 10 | N 3.6 | |
| Oggi h: 06:00 | Sereno | 21 | 20 | 94 | 1016 | 10 | N 0 | |
| Oggi h: 05:30 | Sereno | 21 | 19 | 88 | 1016 | 10 | N 0 | |
| Oggi h: 05:00 | Sereno | 21 | 19 | 88 | 1015 | 10 | N 0 | |
| Oggi h: 04:30 | Sereno | 21 | 19 | 88 | 1015 | 10 | N 0 | |
| Oggi h: 04:00 | Sereno | 22 | 19 | 83 | 1015 | 10 | N 3.6 | |
| Oggi h: 03:30 | Sereno | 22 | 19 | 83 | 1015 | 10 | N 3.6 | |
| Oggi h: 03:00 | Sereno | 22 | 19 | 83 | 1015 | 10 | N 3.6 | |
| Oggi h: 02:30 | Sereno | 21 | 19 | 88 | 1015 | 10 | N 3.6 | |
| Oggi h: 02:00 | Sereno | 21 | 19 | 88 | 1015 | 10 | N 3.6 | |
| Oggi h: 01:30 | Sereno | 22 | 19 | 83 | 1015 | 10 | N 0 | |
| Oggi h: 01:00 | Sereno | 21 | 19 | 88 | 1015 | 10 | N 3.6 | |
| Oggi h: 00:30 | Sereno | 22 | 19 | 83 | 1015 | 10 | N 3.6 | |
| Oggi h: 00:00 | Sereno | 23 | 18 | 73 | 1015 | 10 | N 3.6 | |
| Ieri h: 23:30 | Sereno | 22 | 19 | 83 | 1015 | 10 | N 3.6 | |
| Ieri h: 23:00 | Sereno | 25 | 17 | 61 | 1015 | 10 | N 3.6 | |
| Ieri h: 22:30 | Sereno | 24 | 17 | 64 | 1015 | 10 | N 3.6 | |
| Ieri h: 22:00 | Sereno | 24 | 18 | 69 | 1014 | 10 | N 3.6 | |
| Ieri h: 21:30 | Sereno | 25 | 17 | 61 | 1014 | 10 | N 3.6 | |
| Ieri h: 21:00 | Sereno | 24 | 18 | 69 | 1014 | 10 | N 7.2 | |



